Time;durP1;ratioP1;P1;durP2;ratioP2;P2;SDS_P1;SDS_P2;PMS_P1;PMS_P2;Temp;Humidity;BMP_temperature;BMP_pressure;BME280_temperature;BME280_humidity;BME280_pressure;Samples;Min_cycle;Max_cycle;Signal;HPM_P1;HPM_P2
2021/01/25 05:47:45;;;;;;;3.97;2.40;;;;;;;;;;6223622;23;20020;-82
2021/01/25 05:50:31;;;;;;;5.13;2.33;;;;;;;;;;6222204;23;20047;-83
2021/01/25 05:55:15;;;;;;;4.63;2.60;;;;;;;;;;5099969;27;20434;-82
2021/01/25 05:57:41;;;;;;;5.35;2.75;;;;;;;;;;5094008;28;20032;-82
2021/01/25 06:00:07;;;;;;;6.22;2.97;;;;;;;;;;5100315;28;20112;-83
2021/01/25 06:02:36;;;;;;;4.45;2.50;;;;;;;;;;5085771;28;20050;-84
2021/01/25 06:05:03;;;;;;;7.85;3.08;;;;;;;;;;5083123;28;20054;-83
2021/01/25 06:07:29;;;;;;;4.20;2.35;;;;;;;;;;5087652;28;20483;-84
2021/01/25 06:10:02;;;;;;;4.10;2.63;;;;;;;;;;5093785;28;20123;-84
2021/01/25 06:12:31;;;;;;;4.82;2.05;;;;;;;;;;5083799;28;20453;-83
2021/01/25 06:15:03;;;;;;;4.05;1.83;;;;;;;;;;5091589;28;20032;-83
2021/01/25 06:17:32;;;;;;;4.53;2.35;;;;;;;;;;5090545;28;20040;-83
2021/01/25 06:19:58;;;;;;;5.07;1.88;;;;;;;;;;5094796;28;20024;-83
2021/01/25 06:22:24;;;;;;;3.90;1.85;;;;;;;;;;5089936;28;20078;-83
2021/01/25 06:24:50;;;;;;;6.63;2.60;;;;;;;;;;5088526;28;20101;-83
2021/01/25 06:27:17;;;;;;;3.67;2.45;;;;;;;;;;5085901;28;20456;-83
2021/01/25 06:29:43;;;;;;;5.93;2.30;;;;;;;;;;5086230;28;20036;-83
2021/01/25 06:32:09;;;;;;;3.92;2.10;;;;;;;;;;5087075;28;20050;-83
2021/01/25 06:36:54;;;;;;;3.65;2.15;;;;;;;;;;5109211;27;20406;-82
2021/01/25 06:39:25;;;;;;;3.88;1.98;;;;;;;;;;5095495;28;20040;-82
2021/01/25 06:41:51;;;;;;;;;;;;;;;;;;5095728;28;20508;-82
2021/01/25 06:44:16;;;;;;;5.00;2.30;;;;;;;;;;5101563;28;19908;-83
2021/01/25 06:46:42;;;;;;;3.63;2.20;;;;;;;;;;5095432;28;20384;-82
2021/01/25 06:49:09;;;;;;;4.68;2.60;;;;;;;;;;5103359;28;20019;-82
2021/01/25 06:51:41;;;;;;;4.28;1.90;;;;;;;;;;5088819;28;20024;-81
2021/01/25 06:54:07;;;;;;;3.97;1.90;;;;;;;;;;5087080;28;20032;-83
2021/01/25 06:56:51;;;;;;;5.68;3.13;;;;;;;;;;5085225;28;20522;-83
2021/01/25 06:59:19;;;;;;;5.95;2.42;;;;;;;;;;5089634;28;20024;-82
2021/01/25 07:01:48;;;;;;;5.18;2.65;;;;;;;;;;5084849;28;20055;-82
2021/01/25 07:04:14;;;;;;;4.85;2.58;;;;;;;;;;5092544;28;20063;-83
2021/01/25 07:06:44;;;;;;;6.40;3.28;;;;;;;;;;5090313;28;20084;-83
2021/01/25 07:09:10;;;;;;;57.67;24.77;;;;;;;;;;5100392;28;20096;-83
2021/01/25 07:11:36;;;;;;;14.30;7.15;;;;;;;;;;5082884;28;20123;-82
2021/01/25 07:14:02;;;;;;;11.30;5.72;;;;;;;;;;5087755;28;20085;-83
2021/01/25 07:16:28;;;;;;;8.75;5.00;;;;;;;;;;5083747;28;20025;-82
2021/01/25 07:18:54;;;;;;;6.15;2.78;;;;;;;;;;5080350;28;20020;-82
2021/01/25 07:21:20;;;;;;;5.07;2.78;;;;;;;;;;5076541;28;20048;-83
2021/01/25 07:23:46;;;;;;;5.40;3.08;;;;;;;;;;5089980;28;20038;-82
2021/01/25 07:26:13;;;;;;;4.95;2.50;;;;;;;;;;5087865;28;20025;-83
2021/01/25 07:28:39;;;;;;;4.07;2.05;;;;;;;;;;5088331;28;20449;-83
2021/01/25 07:31:05;;;;;;;4.53;2.38;;;;;;;;;;5091691;28;20038;-83
2021/01/25 07:33:31;;;;;;;7.68;3.03;;;;;;;;;;5098415;28;20528;-84
2021/01/25 07:35:58;;;;;;;11.18;5.50;;;;;;;;;;5093092;28;20036;-84
2021/01/25 07:38:25;;;;;;;19.75;8.90;;;;;;;;;;5095577;28;20024;-83
2021/01/25 07:40:51;;;;;;;12.00;5.43;;;;;;;;;;5097602;28;20036;-83
2021/01/25 07:43:18;;;;;;;16.88;7.82;;;;;;;;;;5088158;28;20028;-83
2021/01/25 07:45:44;;;;;;;19.98;8.80;;;;;;;;;;5092522;28;20036;-84
2021/01/25 07:48:10;;;;;;;22.05;7.72;;;;;;;;;;5087641;28;20641;-83
2021/01/25 07:50:36;;;;;;;15.95;7.85;;;;;;;;;;5076487;28;20033;-83
2021/01/25 07:53:04;;;;;;;20.33;8.77;;;;;;;;;;5084796;28;20024;-84
2021/01/25 07:55:29;;;;;;;19.98;8.65;;;;;;;;;;5073296;28;20038;-83
2021/01/25 07:58:08;;;;;;;19.02;9.93;;;;;;;;;;5088079;28;21221;-83
2021/01/25 08:00:34;;;;;;;18.38;9.32;;;;;;;;;;5087162;28;20051;-83
2021/01/25 08:03:00;;;;;;;16.65;8.60;;;;;;;;;;5085580;28;20042;-80
2021/01/25 08:05:26;;;;;;;25.48;10.48;;;;;;;;;;5096566;28;20379;-83
2021/01/25 08:07:52;;;;;;;27.58;11.00;;;;;;;;;;5070285;28;20021;-84
2021/01/25 08:10:18;;;;;;;23.50;10.80;;;;;;;;;;5067384;28;20108;-84
2021/01/25 08:12:45;;;;;;;31.63;10.70;;;;;;;;;;5063072;28;20056;-83
2021/01/25 08:15:14;;;;;;;20.05;10.18;;;;;;;;;;5068438;28;20031;-83
2021/01/25 08:17:44;;;;;;;14.57;7.72;;;;;;;;;;5060348;28;20051;-83
2021/01/25 08:22:35;;;;;;;11.77;6.43;;;;;;;;;;5078483;28;20368;-81
2021/01/25 08:25:01;;;;;;;12.68;7.90;;;;;;;;;;5058261;28;20611;-81
2021/01/25 08:27:29;;;;;;;9.95;6.00;;;;;;;;;;5073657;28;20039;-80
2021/01/25 08:30:07;;;;;;;11.77;6.55;;;;;;;;;;5059778;28;20047;-82
2021/01/25 08:32:42;;;;;;;12.38;7.28;;;;;;;;;;5057916;28;20021;-83
2021/01/25 08:35:08;;;;;;;14.52;7.55;;;;;;;;;;5057243;28;20016;-82
2021/01/25 08:37:34;;;;;;;24.67;11.20;;;;;;;;;;5061245;28;20035;-82
2021/01/25 08:40:22;;;;;;;13.57;7.07;;;;;;;;;;5052092;28;20422;-81
2021/01/25 08:42:48;;;;;;;11.82;7.45;;;;;;;;;;5055681;28;20485;-83
2021/01/25 08:45:15;;;;;;;10.40;6.10;;;;;;;;;;5058187;28;20022;-82
2021/01/25 08:47:41;;;;;;;9.70;5.50;;;;;;;;;;5060684;28;20414;-83
2021/01/25 08:50:24;;;;;;;11.07;7.28;;;;;;;;;;5060859;28;20041;-82
2021/01/25 08:52:57;;;;;;;7.88;5.57;;;;;;;;;;5056451;28;20039;-82
2021/01/25 08:55:25;;;;;;;7.35;4.95;;;;;;;;;;5053370;28;20025;-82
2021/01/25 08:57:53;;;;;;;7.80;4.35;;;;;;;;;;5056486;28;20033;-83
2021/01/25 09:00:20;;;;;;;7.00;4.40;;;;;;;;;;5049305;28;20029;-82
2021/01/25 09:02:46;;;;;;;6.55;4.00;;;;;;;;;;5053517;28;20029;-82
2021/01/25 09:05:13;;;;;;;6.72;4.20;;;;;;;;;;5056475;28;20017;-82
2021/01/25 09:07:38;;;;;;;6.63;3.92;;;;;;;;;;5058343;28;20025;-82
2021/01/25 09:10:05;;;;;;;6.03;4.28;;;;;;;;;;5057515;28;20080;-82
2021/01/25 09:12:30;;;;;;;6.22;3.58;;;;;;;;;;5052384;28;20054;-82
2021/01/25 09:14:57;;;;;;;9.68;5.85;;;;;;;;;;5063203;28;20017;-82
2021/01/25 09:17:24;;;;;;;7.22;4.15;;;;;;;;;;5051372;28;20022;-83
2021/01/25 09:19:50;;;;;;;6.85;3.78;;;;;;;;;;5052755;28;20506;-82
2021/01/25 09:22:15;;;;;;;6.65;3.95;;;;;;;;;;5060119;28;20025;-82
2021/01/25 09:24:41;;;;;;;6.85;3.90;;;;;;;;;;5054538;28;20040;-82
2021/01/25 09:27:07;;;;;;;7.65;4.05;;;;;;;;;;5058173;28;20023;-82
2021/01/25 09:29:33;;;;;;;8.05;4.25;;;;;;;;;;5056510;28;20493;-82
2021/01/25 09:31:59;;;;;;;6.32;4.03;;;;;;;;;;5049735;28;20075;-82
2021/01/25 09:34:24;;;;;;;5.07;3.47;;;;;;;;;;5040429;28;20032;-82
2021/01/25 09:36:51;;;;;;;6.07;4.03;;;;;;;;;;5038256;28;20071;-82
2021/01/25 09:39:18;;;;;;;7.07;3.80;;;;;;;;;;5042004;28;20025;-82
2021/01/25 09:41:44;;;;;;;6.07;4.00;;;;;;;;;;5039127;28;20365;-82
2021/01/25 09:44:10;;;;;;;6.10;3.97;;;;;;;;;;5048557;28;20047;-82
2021/01/25 09:46:36;;;;;;;9.02;4.20;;;;;;;;;;5043081;28;20028;-82
2021/01/25 09:49:02;;;;;;;5.35;3.83;;;;;;;;;;5043596;28;20026;-83
2021/01/25 09:51:27;;;;;;;6.22;3.30;;;;;;;;;;5043926;28;20032;-82
2021/01/25 09:53:53;;;;;;;7.50;3.88;;;;;;;;;;5047074;28;20017;-82
2021/01/25 09:56:19;;;;;;;6.97;4.25;;;;;;;;;;5041945;28;20096;-82
2021/01/25 09:58:44;;;;;;;6.68;4.35;;;;;;;;;;5033715;28;20025;-82
2021/01/25 10:01:10;;;;;;;9.20;5.05;;;;;;;;;;5045093;28;20524;-82
2021/01/25 10:03:36;;;;;;;8.75;4.93;;;;;;;;;;5042827;28;20739;-83
2021/01/25 10:06:01;;;;;;;10.25;4.38;;;;;;;;;;5035912;28;20397;-82
2021/01/25 10:08:27;;;;;;;6.15;3.67;;;;;;;;;;5045256;28;20016;-83
2021/01/25 10:13:12;;;;;;;6.15;4.47;;;;;;;;;;5071561;28;20358;-82
2021/01/25 10:15:37;;;;;;;8.45;5.40;;;;;;;;;;5052282;28;20032;-81
2021/01/25 10:18:03;;;;;;;8.73;5.15;;;;;;;;;;5049444;28;20120;-81
2021/01/25 10:20:29;;;;;;;7.78;4.85;;;;;;;;;;5056907;28;20043;-81
2021/01/25 10:22:55;;;;;;;7.32;4.00;;;;;;;;;;5051128;28;20013;-82
2021/01/25 10:25:21;;;;;;;8.75;4.57;;;;;;;;;;5048515;28;20021;-82
2021/01/25 10:27:47;;;;;;;8.95;4.55;;;;;;;;;;5052397;28;20501;-82
2021/01/25 10:30:13;;;;;;;9.27;4.22;;;;;;;;;;5055313;28;20018;-82
2021/01/25 10:32:39;;;;;;;23.70;10.27;;;;;;;;;;5049808;28;20051;-82
2021/01/25 10:35:06;;;;;;;22.67;11.02;;;;;;;;;;5049181;28;20039;-82
2021/01/25 10:37:32;;;;;;;17.77;8.18;;;;;;;;;;5053026;28;20397;-82
2021/01/25 10:39:57;;;;;;;17.77;8.20;;;;;;;;;;5048476;28;20021;-82
2021/01/25 10:42:23;;;;;;;16.45;7.57;;;;;;;;;;5045165;28;20093;-82
2021/01/25 10:44:49;;;;;;;13.48;8.50;;;;;;;;;;5041372;28;20397;-83
2021/01/25 10:47:18;;;;;;;18.58;10.52;;;;;;;;;;5046483;28;20037;-83
2021/01/25 10:49:44;;;;;;;11.82;6.85;;;;;;;;;;5050109;28;20485;-83
2021/01/25 10:52:10;;;;;;;6.85;4.80;;;;;;;;;;5047587;28;20812;-82
2021/01/25 10:54:36;;;;;;;5.78;3.78;;;;;;;;;;5048534;28;20033;-83
2021/01/25 10:57:01;;;;;;;10.20;4.45;;;;;;;;;;5050323;28;20020;-82
2021/01/25 10:59:29;;;;;;;7.75;3.97;;;;;;;;;;5047426;28;20031;-83
2021/01/25 11:01:54;;;;;;;8.45;6.78;;;;;;;;;;5049537;28;20033;-83
2021/01/25 11:04:20;;;;;;;6.95;5.25;;;;;;;;;;5051445;28;20533;-83
2021/01/25 11:06:47;;;;;;;6.15;4.28;;;;;;;;;;5049261;28;20093;-82
2021/01/25 11:09:13;;;;;;;5.55;2.80;;;;;;;;;;5048308;28;20025;-83
2021/01/25 11:11:38;;;;;;;12.48;6.20;;;;;;;;;;5052285;28;20039;-83
2021/01/25 11:14:04;;;;;;;11.55;6.35;;;;;;;;;;5051722;28;20128;-84
2021/01/25 11:16:30;;;;;;;11.40;6.68;;;;;;;;;;5049572;28;20079;-84
2021/01/25 11:18:55;;;;;;;10.93;6.43;;;;;;;;;;5049277;28;20086;-82
2021/01/25 11:21:21;;;;;;;13.50;8.40;;;;;;;;;;5050167;28;20029;-83
2021/01/25 11:23:49;;;;;;;11.07;7.07;;;;;;;;;;5043764;28;20085;-83
2021/01/25 11:26:17;;;;;;;25.27;13.45;;;;;;;;;;5033049;28;20052;-82
2021/01/25 11:31:01;;;;;;;6.78;4.13;;;;;;;;;;5081726;27;20359;-83
2021/01/25 11:33:27;;;;;;;6.53;4.05;;;;;;;;;;5070518;28;20025;-82
2021/01/25 11:35:52;;;;;;;10.43;5.65;;;;;;;;;;5069789;28;20025;-80
2021/01/25 11:38:18;;;;;;;5.07;3.33;;;;;;;;;;5065101;28;20627;-82
2021/01/25 11:40:44;;;;;;;10.80;4.90;;;;;;;;;;5070656;28;20548;-82
2021/01/25 11:43:10;;;;;;;6.47;4.05;;;;;;;;;;5070541;28;20023;-83
2021/01/25 11:45:37;;;;;;;6.50;4.50;;;;;;;;;;5068132;28;20079;-83
2021/01/25 11:48:03;;;;;;;4.97;3.63;;;;;;;;;;5065685;28;20033;-82
2021/01/25 11:50:29;;;;;;;4.57;3.17;;;;;;;;;;5064750;28;20486;-82
2021/01/25 11:52:54;;;;;;;6.10;3.67;;;;;;;;;;5068232;28;20032;-82
2021/01/25 11:55:20;;;;;;;8.57;5.00;;;;;;;;;;5061957;28;20109;-82
2021/01/25 11:57:46;;;;;;;6.78;4.88;;;;;;;;;;5065678;28;20036;-83
2021/01/25 12:00:12;;;;;;;6.55;4.10;;;;;;;;;;5070593;28;20029;-82
2021/01/25 12:02:39;;;;;;;8.15;5.03;;;;;;;;;;5065580;28;20021;-82
2021/01/25 12:05:05;;;;;;;6.53;4.40;;;;;;;;;;5064148;28;20400;-82
2021/01/25 12:07:31;;;;;;;7.68;4.72;;;;;;;;;;5065341;28;20489;-83
2021/01/25 12:09:57;;;;;;;7.13;4.78;;;;;;;;;;5063775;28;20083;-82
2021/01/25 12:12:22;;;;;;;6.85;4.57;;;;;;;;;;5067802;28;20024;-82
2021/01/25 12:14:48;;;;;;;6.75;4.15;;;;;;;;;;5065110;28;20459;-82
2021/01/25 12:17:13;;;;;;;7.25;4.68;;;;;;;;;;5063542;28;20443;-82
2021/01/25 12:19:40;;;;;;;8.23;4.68;;;;;;;;;;5066922;28;20464;-82
2021/01/25 12:22:05;;;;;;;8.73;5.03;;;;;;;;;;5065476;28;20377;-82
2021/01/25 12:24:31;;;;;;;7.50;5.00;;;;;;;;;;5066737;28;20031;-82
2021/01/25 12:26:57;;;;;;;9.07;4.97;;;;;;;;;;5063552;28;20560;-82
2021/01/25 12:29:22;;;;;;;7.20;4.78;;;;;;;;;;5064805;28;20130;-82
2021/01/25 12:31:48;;;;;;;8.25;4.70;;;;;;;;;;5060725;28;20028;-82
2021/01/25 12:34:14;;;;;;;6.80;4.15;;;;;;;;;;5064836;28;20094;-82
2021/01/25 12:36:40;;;;;;;10.27;5.93;;;;;;;;;;5064488;28;20025;-82
2021/01/25 12:39:06;;;;;;;6.75;4.60;;;;;;;;;;5057875;28;20023;-81
2021/01/25 12:41:34;;;;;;;11.15;5.22;;;;;;;;;;5050488;28;20034;-81
2021/01/25 12:44:01;;;;;;;13.35;6.28;;;;;;;;;;5046650;28;20024;-80
2021/01/25 12:46:27;;;;;;;7.95;5.53;;;;;;;;;;5052193;28;20052;-80
2021/01/25 12:48:53;;;;;;;7.47;5.30;;;;;;;;;;5051237;28;20025;-81
2021/01/25 12:51:18;;;;;;;8.05;6.25;;;;;;;;;;5052680;28;20127;-81
2021/01/25 12:53:44;;;;;;;17.20;5.93;;;;;;;;;;5049969;28;20223;-81
2021/01/25 12:56:10;;;;;;;11.02;6.50;;;;;;;;;;5048663;28;20044;-82
2021/01/25 12:58:35;;;;;;;11.85;6.85;;;;;;;;;;5050241;28;20381;-80
2021/01/25 13:01:01;;;;;;;8.65;5.10;;;;;;;;;;5051522;28;20029;-82
2021/01/25 13:03:27;;;;;;;5.63;3.90;;;;;;;;;;5052415;28;20565;-82
2021/01/25 13:05:52;;;;;;;7.10;4.68;;;;;;;;;;5050621;28;20111;-82
2021/01/25 13:08:18;;;;;;;8.90;4.93;;;;;;;;;;5050107;28;20100;-82
2021/01/25 13:10:44;;;;;;;14.02;7.63;;;;;;;;;;5046023;28;20017;-82
2021/01/25 13:13:09;;;;;;;9.35;5.88;;;;;;;;;;5049382;28;20111;-82
2021/01/25 13:15:35;;;;;;;11.20;5.35;;;;;;;;;;5049748;28;20384;-82
2021/01/25 13:18:01;;;;;;;8.13;4.85;;;;;;;;;;5051142;28;20085;-82
2021/01/25 13:20:31;;;;;;;6.82;4.47;;;;;;;;;;5051757;28;20052;-82
2021/01/25 13:22:57;;;;;;;7.05;4.28;;;;;;;;;;5049068;28;20028;-82
2021/01/25 13:25:22;;;;;;;5.93;3.42;;;;;;;;;;5048970;28;20370;-82
2021/01/25 13:27:48;;;;;;;4.78;3.22;;;;;;;;;;5047887;28;20029;-82
2021/01/25 13:30:15;;;;;;;4.40;2.83;;;;;;;;;;5051539;28;20020;-82
2021/01/25 13:32:41;;;;;;;5.45;3.42;;;;;;;;;;5050518;28;20044;-82
2021/01/25 13:35:08;;;;;;;4.35;2.85;;;;;;;;;;5051379;28;20063;-82
2021/01/25 13:37:34;;;;;;;6.05;2.88;;;;;;;;;;5051139;28;20480;-82
2021/01/25 13:39:59;;;;;;;10.80;6.85;;;;;;;;;;5047800;28;20028;-82
2021/01/25 13:42:25;;;;;;;14.20;8.30;;;;;;;;;;5051588;28;20021;-82
2021/01/25 13:44:50;;;;;;;10.45;7.20;;;;;;;;;;5047783;28;20039;-82
2021/01/25 13:47:16;;;;;;;7.88;4.05;;;;;;;;;;5047276;28;20088;-82
2021/01/25 13:49:42;;;;;;;5.57;3.90;;;;;;;;;;5046320;28;20099;-82
2021/01/25 13:52:11;;;;;;;5.40;3.30;;;;;;;;;;5045940;28;20429;-82
2021/01/25 13:54:37;;;;;;;4.85;3.10;;;;;;;;;;5049089;28;20492;-82
2021/01/25 13:57:03;;;;;;;4.60;2.97;;;;;;;;;;5048320;28;20025;-82
2021/01/25 13:59:28;;;;;;;4.78;3.10;;;;;;;;;;5049082;28;20765;-82
2021/01/25 14:04:50;;;;;;;5.20;3.05;;;;;;;;;;5114871;27;705484;-82
2021/01/25 14:07:22;;;;;;;4.78;3.10;;;;;;;;;;5113847;28;20474;-82
2021/01/25 14:10:01;;;;;;;5.45;3.28;;;;;;;;;;5116379;28;20024;-82
2021/01/25 14:12:30;;;;;;;4.00;2.60;;;;;;;;;;5117430;28;20666;-82
2021/01/25 14:14:55;;;;;;;7.63;3.15;;;;;;;;;;5109493;28;20020;-82
2021/01/25 14:17:21;;;;;;;4.63;3.03;;;;;;;;;;5103694;28;20021;-81
2021/01/25 14:19:49;;;;;;;4.70;2.85;;;;;;;;;;5112256;28;20023;-81
2021/01/25 14:22:14;;;;;;;4.20;2.35;;;;;;;;;;5109599;28;20092;-81
2021/01/25 14:24:40;;;;;;;3.70;2.15;;;;;;;;;;5117311;28;20483;-81
2021/01/25 14:27:06;;;;;;;5.65;3.25;;;;;;;;;;5114913;28;20016;-81
2021/01/25 14:29:32;;;;;;;4.53;3.10;;;;;;;;;;5104454;28;20032;-82
2021/01/25 14:31:58;;;;;;;4.47;2.90;;;;;;;;;;5114198;28;20353;-82
2021/01/25 14:34:23;;;;;;;4.30;2.63;;;;;;;;;;5111098;28;20016;-82
2021/01/25 14:36:49;;;;;;;8.95;5.68;;;;;;;;;;5107391;28;20019;-82
2021/01/25 14:39:15;;;;;;;7.20;4.95;;;;;;;;;;5117892;28;20044;-82
2021/01/25 14:41:40;;;;;;;8.10;5.28;;;;;;;;;;5115016;28;20031;-82
2021/01/25 14:44:06;;;;;;;8.00;5.03;;;;;;;;;;5114358;28;20020;-82
2021/01/25 14:46:32;;;;;;;11.52;7.15;;;;;;;;;;5110305;28;20015;-82
2021/01/25 14:48:58;;;;;;;9.02;5.85;;;;;;;;;;5119354;28;20502;-82
2021/01/25 14:51:24;;;;;;;7.75;5.15;;;;;;;;;;5115444;28;20026;-82
2021/01/25 14:53:51;;;;;;;8.18;4.53;;;;;;;;;;5116318;28;20059;-82
2021/01/25 14:56:17;;;;;;;10.38;5.85;;;;;;;;;;5119262;27;20058;-82
2021/01/25 14:58:42;;;;;;;7.60;5.15;;;;;;;;;;5110310;28;20050;-82
2021/01/25 15:01:08;;;;;;;7.65;5.72;;;;;;;;;;5119847;28;20069;-82
2021/01/25 15:03:34;;;;;;;19.70;9.93;;;;;;;;;;5114943;28;20036;-82
2021/01/25 15:05:59;;;;;;;16.33;10.10;;;;;;;;;;5120619;28;20494;-82
2021/01/25 15:08:25;;;;;;;10.30;6.75;;;;;;;;;;5115568;28;20110;-82
2021/01/25 15:10:51;;;;;;;7.40;4.43;;;;;;;;;;5112011;28;20019;-83
2021/01/25 15:13:16;;;;;;;5.57;3.15;;;;;;;;;;5119564;28;20046;-83
2021/01/25 15:15:42;;;;;;;6.57;4.32;;;;;;;;;;5093881;28;20051;-82
2021/01/25 15:18:08;;;;;;;5.22;3.15;;;;;;;;;;5101440;28;20071;-82
2021/01/25 15:20:34;;;;;;;5.00;3.03;;;;;;;;;;5101200;28;20060;-82
2021/01/25 15:23:01;;;;;;;4.07;2.45;;;;;;;;;;5098347;28;20032;-82
2021/01/25 15:25:27;;;;;;;3.63;2.15;;;;;;;;;;5097116;28;20025;-83
2021/01/25 15:27:53;;;;;;;4.22;2.13;;;;;;;;;;5090443;28;20016;-82
2021/01/25 15:30:19;;;;;;;3.30;1.95;;;;;;;;;;5095859;28;20038;-82
2021/01/25 15:32:45;;;;;;;5.53;2.72;;;;;;;;;;5088468;28;20025;-82
2021/01/25 15:35:11;;;;;;;5.78;3.13;;;;;;;;;;5093013;28;20052;-82
2021/01/25 15:37:36;;;;;;;4.47;2.10;;;;;;;;;;5090352;28;20507;-83
2021/01/25 15:40:03;;;;;;;3.92;2.10;;;;;;;;;;5098890;28;20034;-82
2021/01/25 15:42:28;;;;;;;3.38;2.10;;;;;;;;;;5099175;28;20027;-83
2021/01/25 15:44:54;;;;;;;15.95;6.85;;;;;;;;;;5095644;28;20383;-83
2021/01/25 15:47:19;;;;;;;27.42;14.52;;;;;;;;;;5081501;28;20024;-85
2021/01/25 15:49:45;;;;;;;33.05;17.10;;;;;;;;;;5093830;28;20111;-85
2021/01/25 15:52:11;;;;;;;18.15;10.15;;;;;;;;;;5087206;28;20023;-86
2021/01/25 15:54:37;;;;;;;15.27;7.30;;;;;;;;;;5082123;28;20078;-83
2021/01/25 15:57:03;;;;;;;18.38;10.35;;;;;;;;;;5095668;28;20051;-83
2021/01/25 15:59:29;;;;;;;8.77;5.43;;;;;;;;;;5087954;28;20025;-83
2021/01/25 16:01:54;;;;;;;6.65;3.60;;;;;;;;;;5101026;28;20476;-83
2021/01/25 16:04:20;;;;;;;5.22;2.80;;;;;;;;;;5100053;28;20073;-83
2021/01/25 16:06:46;;;;;;;3.53;2.03;;;;;;;;;;5100396;28;20512;-83
2021/01/25 16:09:12;;;;;;;5.03;2.25;;;;;;;;;;5098281;28;20049;-83
2021/01/25 16:11:38;;;;;;;6.35;2.58;;;;;;;;;;5102339;28;20071;-83
2021/01/25 16:14:04;;;;;;;5.93;2.97;;;;;;;;;;5099010;28;20135;-83
2021/01/25 16:16:29;;;;;;;5.80;2.90;;;;;;;;;;5097210;28;20020;-85
2021/01/25 16:18:55;;;;;;;6.60;3.20;;;;;;;;;;5102292;28;20019;-83
2021/01/25 16:21:21;;;;;;;9.73;4.25;;;;;;;;;;5102771;28;20051;-83
2021/01/25 16:23:46;;;;;;;11.45;5.55;;;;;;;;;;5104807;28;20111;-83
2021/01/25 16:26:12;;;;;;;7.90;4.22;;;;;;;;;;5084089;28;20396;-83
2021/01/25 16:28:38;;;;;;;8.65;4.35;;;;;;;;;;5101684;28;20081;-83
2021/01/25 16:31:05;;;;;;;8.93;4.68;;;;;;;;;;5091785;28;20608;-83
2021/01/25 16:33:31;;;;;;;6.53;3.63;;;;;;;;;;5103082;28;20024;-82
2021/01/25 16:35:57;;;;;;;5.50;3.63;;;;;;;;;;5095326;28;20022;-83
2021/01/25 16:38:23;;;;;;;5.60;3.58;;;;;;;;;;5097119;28;20023;-82
2021/01/25 16:40:48;;;;;;;7.15;4.05;;;;;;;;;;5096158;28;20577;-82
2021/01/25 16:43:16;;;;;;;9.13;4.68;;;;;;;;;;5096876;28;20028;-82
2021/01/25 16:45:42;;;;;;;8.27;5.13;;;;;;;;;;5092188;28;20050;-82
2021/01/25 16:48:09;;;;;;;9.75;5.10;;;;;;;;;;5098226;28;20016;-82
2021/01/25 16:50:35;;;;;;;8.88;4.53;;;;;;;;;;5097385;28;20012;-82
2021/01/25 16:53:01;;;;;;;6.97;4.00;;;;;;;;;;5096377;28;20373;-84
2021/01/25 16:55:26;;;;;;;7.78;4.50;;;;;;;;;;5093857;28;20038;-83
2021/01/25 16:57:52;;;;;;;7.43;4.57;;;;;;;;;;5094060;28;20028;-84
2021/01/25 17:00:18;;;;;;;6.68;4.03;;;;;;;;;;5096384;28;20098;-83
2021/01/25 17:02:44;;;;;;;7.10;4.10;;;;;;;;;;5096755;28;20076;-83
2021/01/25 17:05:11;;;;;;;13.85;7.32;;;;;;;;;;5097853;28;20106;-83
2021/01/25 17:07:36;;;;;;;9.23;5.38;;;;;;;;;;5095089;28;20048;-83
2021/01/25 17:10:03;;;;;;;6.88;3.88;;;;;;;;;;5094716;28;20434;-83
2021/01/25 17:12:29;;;;;;;7.65;4.30;;;;;;;;;;5097394;28;20396;-83
2021/01/25 17:14:54;;;;;;;7.57;4.35;;;;;;;;;;5097400;28;20024;-83
2021/01/25 17:17:20;;;;;;;6.35;3.72;;;;;;;;;;5098254;28;20030;-83
2021/01/25 17:19:46;;;;;;;6.25;3.47;;;;;;;;;;5098561;28;20024;-83
2021/01/25 17:22:12;;;;;;;7.00;4.07;;;;;;;;;;5093249;28;20024;-83
2021/01/25 17:24:40;;;;;;;6.18;3.53;;;;;;;;;;5098092;28;20518;-82
2021/01/25 17:27:06;;;;;;;6.20;3.58;;;;;;;;;;5092209;28;20106;-82
2021/01/25 17:29:31;;;;;;;5.25;3.00;;;;;;;;;;5094839;28;20030;-82
2021/01/25 17:31:57;;;;;;;5.82;3.88;;;;;;;;;;5087462;28;20104;-82
2021/01/25 17:34:23;;;;;;;5.13;3.15;;;;;;;;;;5087375;28;20389;-82
2021/01/25 17:36:49;;;;;;;7.53;3.85;;;;;;;;;;5089101;28;20026;-81
2021/01/25 17:39:14;;;;;;;4.50;2.88;;;;;;;;;;5095061;28;20102;-82
2021/01/25 17:41:40;;;;;;;5.55;3.55;;;;;;;;;;5095280;28;20033;-80
2021/01/25 17:44:06;;;;;;;5.80;3.00;;;;;;;;;;5092361;28;20031;-82
2021/01/25 17:46:32;;;;;;;7.22;3.53;;;;;;;;;;5092049;28;20023;-81
2021/01/25 17:48:58;;;;;;;6.43;3.10;;;;;;;;;;5078296;28;20091;-82
2021/01/25 17:51:24;;;;;;;5.95;2.83;;;;;;;;;;5089530;28;20047;-82
2021/01/25 17:53:50;;;;;;;6.03;3.10;;;;;;;;;;5082935;28;20024;-80
2021/01/25 17:56:16;;;;;;;6.10;3.42;;;;;;;;;;5075051;28;20031;-80
2021/01/25 17:58:42;;;;;;;6.70;3.03;;;;;;;;;;5086574;28;20040;-82
2021/01/25 18:01:08;;;;;;;6.18;3.13;;;;;;;;;;5098586;28;20436;-83
2021/01/25 18:03:34;;;;;;;4.65;3.08;;;;;;;;;;5093091;28;20074;-83
2021/01/25 18:05:59;;;;;;;4.90;2.90;;;;;;;;;;5092329;28;20017;-82
2021/01/25 18:08:26;;;;;;;4.70;3.38;;;;;;;;;;5098046;28;20106;-82
2021/01/25 18:10:52;;;;;;;7.75;4.88;;;;;;;;;;5103361;28;20024;-83
2021/01/25 18:13:18;;;;;;;12.60;7.47;;;;;;;;;;5094559;28;20030;-82
2021/01/25 18:15:43;;;;;;;12.13;7.05;;;;;;;;;;5083918;28;20028;-82
2021/01/25 18:18:09;;;;;;;12.70;7.28;;;;;;;;;;5089304;28;20418;-82
2021/01/25 18:20:35;;;;;;;22.02;11.60;;;;;;;;;;5101644;28;20024;-82
2021/01/25 18:23:01;;;;;;;17.02;9.90;;;;;;;;;;5098690;28;20059;-82
2021/01/25 18:25:27;;;;;;;14.05;7.95;;;;;;;;;;5085230;28;20422;-82
2021/01/25 18:27:55;;;;;;;13.18;7.18;;;;;;;;;;5099768;28;20043;-82
2021/01/25 18:30:22;;;;;;;9.18;5.65;;;;;;;;;;5103266;28;20019;-81
2021/01/25 18:32:47;;;;;;;13.07;7.50;;;;;;;;;;5092627;28;20040;-83
2021/01/25 18:35:15;;;;;;;11.10;6.35;;;;;;;;;;5092235;28;20041;-82
2021/01/25 18:37:40;;;;;;;11.07;6.43;;;;;;;;;;5095239;28;20085;-82
2021/01/25 18:40:07;;;;;;;7.88;5.22;;;;;;;;;;5096043;28;20491;-82
2021/01/25 18:42:33;;;;;;;6.93;3.95;;;;;;;;;;5091638;28;20016;-83
2021/01/25 18:44:59;;;;;;;6.90;3.97;;;;;;;;;;5097205;28;20020;-82
2021/01/25 18:47:25;;;;;;;6.88;4.28;;;;;;;;;;5094261;28;20115;-83
2021/01/25 18:49:50;;;;;;;6.90;3.55;;;;;;;;;;5097029;28;20027;-82
2021/01/25 18:52:16;;;;;;;5.72;3.50;;;;;;;;;;5097276;28;20028;-83
2021/01/25 18:54:42;;;;;;;5.55;3.50;;;;;;;;;;5099270;28;20088;-83
2021/01/25 18:57:07;;;;;;;6.93;4.18;;;;;;;;;;5100065;28;20034;-82
2021/01/25 18:59:33;;;;;;;6.53;3.80;;;;;;;;;;5111391;28;20095;-82
2021/01/25 19:01:59;;;;;;;8.10;4.30;;;;;;;;;;5098236;28;20126;-82
2021/01/25 19:04:24;;;;;;;5.10;3.47;;;;;;;;;;5086959;28;20127;-82
2021/01/25 19:06:50;;;;;;;7.82;4.38;;;;;;;;;;5104157;28;20087;-83
2021/01/25 19:09:16;;;;;;;7.45;3.80;;;;;;;;;;5092556;28;20812;-82
2021/01/25 19:11:41;;;;;;;6.65;3.50;;;;;;;;;;5094512;28;20103;-82
2021/01/25 19:14:07;;;;;;;6.88;3.72;;;;;;;;;;5101249;28;20032;-81
2021/01/25 19:16:33;;;;;;;7.53;4.93;;;;;;;;;;5093288;28;20506;-81
2021/01/25 19:18:59;;;;;;;8.52;4.72;;;;;;;;;;5090039;28;20035;-81
2021/01/25 19:21:25;;;;;;;7.35;4.72;;;;;;;;;;5100491;28;20464;-81
2021/01/25 19:23:50;;;;;;;9.48;5.00;;;;;;;;;;5102231;28;20042;-80
2021/01/25 19:26:16;;;;;;;7.63;4.85;;;;;;;;;;5097619;28;20034;-80
2021/01/25 19:28:42;;;;;;;8.45;4.75;;;;;;;;;;5105275;28;20436;-81
2021/01/25 19:31:07;;;;;;;8.45;4.85;;;;;;;;;;5092173;28;20024;-81
2021/01/25 19:33:33;;;;;;;7.60;4.82;;;;;;;;;;5081253;28;20021;-81
2021/01/25 19:35:59;;;;;;;8.88;5.22;;;;;;;;;;5091860;28;20016;-81
2021/01/25 19:38:24;;;;;;;9.27;5.68;;;;;;;;;;5093912;28;20066;-81
2021/01/25 19:40:50;;;;;;;9.82;6.30;;;;;;;;;;5083272;28;20031;-81
2021/01/25 19:43:18;;;;;;;10.57;5.68;;;;;;;;;;5100806;28;20028;-81
2021/01/25 19:45:45;;;;;;;8.68;5.63;;;;;;;;;;5088269;28;20655;-81
2021/01/25 19:48:12;;;;;;;9.15;5.50;;;;;;;;;;5095988;28;20016;-81
2021/01/25 19:50:38;;;;;;;10.95;5.72;;;;;;;;;;5095483;28;20075;-81
2021/01/25 19:53:04;;;;;;;9.93;6.50;;;;;;;;;;5094216;28;20079;-81
2021/01/25 19:55:30;;;;;;;11.80;6.63;;;;;;;;;;5094327;28;20020;-81
2021/01/25 19:57:56;;;;;;;11.75;7.78;;;;;;;;;;5096570;28;20028;-81
2021/01/25 20:00:26;;;;;;;12.27;7.10;;;;;;;;;;5099748;28;20115;-81
2021/01/25 20:02:52;;;;;;;10.63;6.72;;;;;;;;;;5097116;28;20024;-81
2021/01/25 20:05:19;;;;;;;13.40;7.82;;;;;;;;;;5090075;28;20038;-81
2021/01/25 20:07:45;;;;;;;13.43;8.20;;;;;;;;;;5097189;28;20052;-81
2021/01/25 20:10:12;;;;;;;17.63;9.40;;;;;;;;;;5095076;28;20028;-81
2021/01/25 20:12:37;;;;;;;16.15;9.52;;;;;;;;;;5100345;28;20020;-81
2021/01/25 20:15:05;;;;;;;25.75;10.05;;;;;;;;;;5094409;28;20028;-81
2021/01/25 20:17:31;;;;;;;22.65;10.13;;;;;;;;;;5114009;28;20039;-81
2021/01/25 20:19:57;;;;;;;24.30;11.73;;;;;;;;;;5123102;28;20055;-81
2021/01/25 20:22:22;;;;;;;19.80;10.73;;;;;;;;;;5104508;28;20092;-81
2021/01/25 20:24:51;;;;;;;19.83;10.43;;;;;;;;;;5099199;28;20112;-81
2021/01/25 20:27:17;;;;;;;17.13;9.95;;;;;;;;;;5100629;28;20034;-81
2021/01/25 20:29:43;;;;;;;14.35;8.27;;;;;;;;;;5100485;28;20012;-80
2021/01/25 20:32:09;;;;;;;17.63;9.43;;;;;;;;;;5099530;28;20095;-80
2021/01/25 20:34:35;;;;;;;15.02;9.13;;;;;;;;;;5099678;28;20751;-80